sensor_id;sensor_type;location;lat;lon;timestamp;temperature;humidity
7163;DHT22;3623;47.098;15.446;2022-08-19T00:01:22;17.70;99.90
7163;DHT22;3623;47.098;15.446;2022-08-19T00:03:51;17.80;99.90
7163;DHT22;3623;47.098;15.446;2022-08-19T00:06:18;17.80;99.90
7163;DHT22;3623;47.098;15.446;2022-08-19T00:08:45;17.80;99.90
7163;DHT22;3623;47.098;15.446;2022-08-19T00:11:13;17.80;99.90
7163;DHT22;3623;47.098;15.446;2022-08-19T00:13:40;17.80;99.90
7163;DHT22;3623;47.098;15.446;2022-08-19T00:16:07;17.80;99.90
7163;DHT22;3623;47.098;15.446;2022-08-19T00:18:34;17.80;99.90
7163;DHT22;3623;47.098;15.446;2022-08-19T00:21:03;17.80;99.90
7163;DHT22;3623;47.098;15.446;2022-08-19T00:23:33;17.80;99.90
7163;DHT22;3623;47.098;15.446;2022-08-19T00:26:02;17.80;99.90
7163;DHT22;3623;47.098;15.446;2022-08-19T00:28:29;17.80;99.90
7163;DHT22;3623;47.098;15.446;2022-08-19T00:30:57;17.80;99.90
7163;DHT22;3623;47.098;15.446;2022-08-19T00:33:24;17.80;99.90
7163;DHT22;3623;47.098;15.446;2022-08-19T00:35:51;17.80;99.90
7163;DHT22;3623;47.098;15.446;2022-08-19T00:38:20;17.80;99.90
7163;DHT22;3623;47.098;15.446;2022-08-19T00:40:48;17.80;99.90
7163;DHT22;3623;47.098;15.446;2022-08-19T00:43:19;17.80;99.90
7163;DHT22;3623;47.098;15.446;2022-08-19T00:45:48;17.80;99.90
7163;DHT22;3623;47.098;15.446;2022-08-19T00:48:16;17.80;99.90
7163;DHT22;3623;47.098;15.446;2022-08-19T00:50:44;17.90;99.90
7163;DHT22;3623;47.098;15.446;2022-08-19T00:53:14;17.80;99.90
7163;DHT22;3623;47.098;15.446;2022-08-19T00:55:45;17.80;99.90
7163;DHT22;3623;47.098;15.446;2022-08-19T00:58:16;17.80;99.90
7163;DHT22;3623;47.098;15.446;2022-08-19T01:00:44;17.70;99.90
7163;DHT22;3623;47.098;15.446;2022-08-19T01:03:14;17.70;99.90
7163;DHT22;3623;47.098;15.446;2022-08-19T01:05:43;17.60;99.90
7163;DHT22;3623;47.098;15.446;2022-08-19T01:08:14;17.60;99.90
7163;DHT22;3623;47.098;15.446;2022-08-19T01:10:47;17.60;99.90
7163;DHT22;3623;47.098;15.446;2022-08-19T01:13:16;17.60;99.90
7163;DHT22;3623;47.098;15.446;2022-08-19T01:15:47;17.60;99.90
7163;DHT22;3623;47.098;15.446;2022-08-19T01:18:16;17.60;99.90
7163;DHT22;3623;47.098;15.446;2022-08-19T01:20:46;17.60;99.90
7163;DHT22;3623;47.098;15.446;2022-08-19T01:23:15;17.60;99.90
7163;DHT22;3623;47.098;15.446;2022-08-19T01:25:46;17.60;99.90
7163;DHT22;3623;47.098;15.446;2022-08-19T01:28:17;17.70;99.90
7163;DHT22;3623;47.098;15.446;2022-08-19T01:30:45;17.70;99.90
7163;DHT22;3623;47.098;15.446;2022-08-19T01:33:13;17.80;99.90
7163;DHT22;3623;47.098;15.446;2022-08-19T01:35:41;17.80;99.90
7163;DHT22;3623;47.098;15.446;2022-08-19T01:38:20;17.80;99.90
7163;DHT22;3623;47.098;15.446;2022-08-19T01:40:47;17.80;99.90
7163;DHT22;3623;47.098;15.446;2022-08-19T01:43:15;17.70;99.90
7163;DHT22;3623;47.098;15.446;2022-08-19T01:45:45;17.70;99.90
7163;DHT22;3623;47.098;15.446;2022-08-19T01:48:14;17.70;99.90
7163;DHT22;3623;47.098;15.446;2022-08-19T01:50:42;17.70;99.90
7163;DHT22;3623;47.098;15.446;2022-08-19T01:53:10;17.70;99.90
7163;DHT22;3623;47.098;15.446;2022-08-19T01:55:42;17.70;99.90
7163;DHT22;3623;47.098;15.446;2022-08-19T01:58:12;17.80;99.90
7163;DHT22;3623;47.098;15.446;2022-08-19T02:00:41;17.80;99.90
7163;DHT22;3623;47.098;15.446;2022-08-19T02:03:09;17.80;99.90
7163;DHT22;3623;47.098;15.446;2022-08-19T02:05:37;17.90;99.90
7163;DHT22;3623;47.098;15.446;2022-08-19T02:08:05;17.90;99.90
7163;DHT22;3623;47.098;15.446;2022-08-19T02:10:48;17.90;99.90
7163;DHT22;3623;47.098;15.446;2022-08-19T02:13:15;17.90;99.90
7163;DHT22;3623;47.098;15.446;2022-08-19T02:15:43;17.90;99.90
7163;DHT22;3623;47.098;15.446;2022-08-19T02:18:10;17.80;99.90
7163;DHT22;3623;47.098;15.446;2022-08-19T02:20:39;17.80;99.90
7163;DHT22;3623;47.098;15.446;2022-08-19T02:23:07;17.80;99.90
7163;DHT22;3623;47.098;15.446;2022-08-19T02:25:34;17.70;99.90
7163;DHT22;3623;47.098;15.446;2022-08-19T02:28:04;17.70;99.90
7163;DHT22;3623;47.098;15.446;2022-08-19T02:30:32;17.70;99.90
7163;DHT22;3623;47.098;15.446;2022-08-19T02:32:59;17.70;99.90
7163;DHT22;3623;47.098;15.446;2022-08-19T02:35:26;17.80;99.90
7163;DHT22;3623;47.098;15.446;2022-08-19T02:37:53;17.80;99.90
7163;DHT22;3623;47.098;15.446;2022-08-19T02:40:39;17.90;99.90
7163;DHT22;3623;47.098;15.446;2022-08-19T02:43:08;17.90;99.90
7163;DHT22;3623;47.098;15.446;2022-08-19T02:45:37;18.00;99.90
7163;DHT22;3623;47.098;15.446;2022-08-19T02:48:05;18.00;99.90
7163;DHT22;3623;47.098;15.446;2022-08-19T02:50:33;18.10;99.90
7163;DHT22;3623;47.098;15.446;2022-08-19T02:53:00;18.00;99.90
7163;DHT22;3623;47.098;15.446;2022-08-19T02:55:30;18.00;99.90
7163;DHT22;3623;47.098;15.446;2022-08-19T02:57:57;18.00;99.90
7163;DHT22;3623;47.098;15.446;2022-08-19T03:00:28;18.00;99.90
7163;DHT22;3623;47.098;15.446;2022-08-19T03:02:55;18.00;99.90
7163;DHT22;3623;47.098;15.446;2022-08-19T03:05:22;18.00;99.90
7163;DHT22;3623;47.098;15.446;2022-08-19T03:07:50;17.90;99.90
7163;DHT22;3623;47.098;15.446;2022-08-19T03:10:17;17.90;99.90
7163;DHT22;3623;47.098;15.446;2022-08-19T03:12:44;17.90;99.90
7163;DHT22;3623;47.098;15.446;2022-08-19T03:15:12;17.90;99.90
7163;DHT22;3623;47.098;15.446;2022-08-19T03:17:40;17.90;99.90
7163;DHT22;3623;47.098;15.446;2022-08-19T03:20:09;17.90;99.90
7163;DHT22;3623;47.098;15.446;2022-08-19T03:22:36;17.60;99.90
7163;DHT22;3623;47.098;15.446;2022-08-19T03:25:04;17.90;99.90
7163;DHT22;3623;47.098;15.446;2022-08-19T03:27:31;17.90;99.90
7163;DHT22;3623;47.098;15.446;2022-08-19T03:29:58;17.90;99.90
7163;DHT22;3623;47.098;15.446;2022-08-19T03:32:25;17.90;99.90
7163;DHT22;3623;47.098;15.446;2022-08-19T03:34:54;17.90;99.90
7163;DHT22;3623;47.098;15.446;2022-08-19T03:37:22;18.00;99.90
7163;DHT22;3623;47.098;15.446;2022-08-19T03:39:50;18.00;99.90
7163;DHT22;3623;47.098;15.446;2022-08-19T03:42:17;18.10;99.90
7163;DHT22;3623;47.098;15.446;2022-08-19T03:44:45;18.10;99.90
7163;DHT22;3623;47.098;15.446;2022-08-19T03:47:12;18.10;99.90
7163;DHT22;3623;47.098;15.446;2022-08-19T03:49:45;18.00;99.90
7163;DHT22;3623;47.098;15.446;2022-08-19T03:52:14;18.00;99.90
7163;DHT22;3623;47.098;15.446;2022-08-19T03:54:41;17.90;99.90
7163;DHT22;3623;47.098;15.446;2022-08-19T03:57:09;18.00;99.90
7163;DHT22;3623;47.098;15.446;2022-08-19T03:59:42;18.00;99.90
7163;DHT22;3623;47.098;15.446;2022-08-19T04:02:12;18.10;99.90
7163;DHT22;3623;47.098;15.446;2022-08-19T04:04:43;18.10;99.90
7163;DHT22;3623;47.098;15.446;2022-08-19T04:07:12;18.10;99.90
7163;DHT22;3623;47.098;15.446;2022-08-19T04:09:43;18.20;99.90
7163;DHT22;3623;47.098;15.446;2022-08-19T04:12:10;18.20;99.90
7163;DHT22;3623;47.098;15.446;2022-08-19T04:14:37;18.10;99.90
7163;DHT22;3623;47.098;15.446;2022-08-19T04:17:05;18.20;99.90
7163;DHT22;3623;47.098;15.446;2022-08-19T04:19:38;18.20;99.90
7163;DHT22;3623;47.098;15.446;2022-08-19T04:22:05;18.30;99.90
7163;DHT22;3623;47.098;15.446;2022-08-19T04:24:35;18.30;99.90
7163;DHT22;3623;47.098;15.446;2022-08-19T04:27:05;18.40;99.90
7163;DHT22;3623;47.098;15.446;2022-08-19T04:29:33;18.50;99.90
7163;DHT22;3623;47.098;15.446;2022-08-19T04:32:01;18.70;99.90
7163;DHT22;3623;47.098;15.446;2022-08-19T04:34:29;18.80;99.90
7163;DHT22;3623;47.098;15.446;2022-08-19T04:36:58;18.90;99.90
7163;DHT22;3623;47.098;15.446;2022-08-19T04:39:27;19.00;99.90
7163;DHT22;3623;47.098;15.446;2022-08-19T04:42:10;19.00;99.90
7163;DHT22;3623;47.098;15.446;2022-08-19T04:44:55;19.10;99.90
7163;DHT22;3623;47.098;15.446;2022-08-19T04:47:24;19.10;99.90
7163;DHT22;3623;47.098;15.446;2022-08-19T04:49:58;19.20;99.90
7163;DHT22;3623;47.098;15.446;2022-08-19T04:52:25;19.20;99.90
7163;DHT22;3623;47.098;15.446;2022-08-19T04:54:52;19.20;99.90
7163;DHT22;3623;47.098;15.446;2022-08-19T04:57:22;19.20;99.90
7163;DHT22;3623;47.098;15.446;2022-08-19T04:59:53;19.30;99.90
7163;DHT22;3623;47.098;15.446;2022-08-19T05:02:21;19.30;99.90
7163;DHT22;3623;47.098;15.446;2022-08-19T05:04:50;19.30;99.90
7163;DHT22;3623;47.098;15.446;2022-08-19T05:07:17;19.40;99.90
7163;DHT22;3623;47.098;15.446;2022-08-19T05:09:44;19.40;99.90
7163;DHT22;3623;47.098;15.446;2022-08-19T05:12:12;19.40;99.90
7163;DHT22;3623;47.098;15.446;2022-08-19T05:14:40;19.40;99.90
7163;DHT22;3623;47.098;15.446;2022-08-19T05:17:07;19.50;99.90
7163;DHT22;3623;47.098;15.446;2022-08-19T05:19:37;19.40;99.90
7163;DHT22;3623;47.098;15.446;2022-08-19T05:22:21;19.40;99.90
7163;DHT22;3623;47.098;15.446;2022-08-19T05:25:04;19.50;99.90
7163;DHT22;3623;47.098;15.446;2022-08-19T05:27:31;19.50;99.90
7163;DHT22;3623;47.098;15.446;2022-08-19T05:30:05;19.50;99.90
7163;DHT22;3623;47.098;15.446;2022-08-19T05:32:32;19.60;99.90
7163;DHT22;3623;47.098;15.446;2022-08-19T05:35:00;19.60;99.90
7163;DHT22;3623;47.098;15.446;2022-08-19T05:37:27;19.50;99.90
7163;DHT22;3623;47.098;15.446;2022-08-19T05:39:54;19.60;99.90
7163;DHT22;3623;47.098;15.446;2022-08-19T05:42:22;19.70;99.90
7163;DHT22;3623;47.098;15.446;2022-08-19T05:44:49;19.80;99.90
7163;DHT22;3623;47.098;15.446;2022-08-19T05:47:18;20.00;99.90
7163;DHT22;3623;47.098;15.446;2022-08-19T05:49:46;20.10;99.90
7163;DHT22;3623;47.098;15.446;2022-08-19T05:52:15;20.10;99.90
7163;DHT22;3623;47.098;15.446;2022-08-19T05:54:43;20.20;99.90
7163;DHT22;3623;47.098;15.446;2022-08-19T05:57:14;20.20;99.90
7163;DHT22;3623;47.098;15.446;2022-08-19T05:59:42;20.20;99.90
7163;DHT22;3623;47.098;15.446;2022-08-19T06:02:11;20.20;99.90
7163;DHT22;3623;47.098;15.446;2022-08-19T06:04:40;20.20;99.90
7163;DHT22;3623;47.098;15.446;2022-08-19T06:07:09;20.20;99.90
7163;DHT22;3623;47.098;15.446;2022-08-19T06:09:36;20.10;99.90
7163;DHT22;3623;47.098;15.446;2022-08-19T06:12:04;20.20;99.90
7163;DHT22;3623;47.098;15.446;2022-08-19T06:14:34;20.20;99.90
7163;DHT22;3623;47.098;15.446;2022-08-19T06:17:02;20.20;99.90
7163;DHT22;3623;47.098;15.446;2022-08-19T06:19:30;20.20;99.90
7163;DHT22;3623;47.098;15.446;2022-08-19T06:21:59;20.20;99.90
7163;DHT22;3623;47.098;15.446;2022-08-19T06:24:28;20.30;99.90
7163;DHT22;3623;47.098;15.446;2022-08-19T06:26:56;20.40;99.90
7163;DHT22;3623;47.098;15.446;2022-08-19T06:29:26;20.50;99.90
7163;DHT22;3623;47.098;15.446;2022-08-19T06:31:56;20.60;99.90
7163;DHT22;3623;47.098;15.446;2022-08-19T06:34:24;20.70;99.90
7163;DHT22;3623;47.098;15.446;2022-08-19T06:36:52;20.70;99.90
7163;DHT22;3623;47.098;15.446;2022-08-19T06:39:22;20.80;99.90
7163;DHT22;3623;47.098;15.446;2022-08-19T06:41:53;20.90;99.90
7163;DHT22;3623;47.098;15.446;2022-08-19T06:44:22;21.10;99.90
7163;DHT22;3623;47.098;15.446;2022-08-19T06:46:50;21.20;99.90
7163;DHT22;3623;47.098;15.446;2022-08-19T06:49:17;21.30;99.90
7163;DHT22;3623;47.098;15.446;2022-08-19T06:51:47;21.40;99.90
7163;DHT22;3623;47.098;15.446;2022-08-19T06:54:15;21.50;99.90
7163;DHT22;3623;47.098;15.446;2022-08-19T06:56:44;21.50;99.90
7163;DHT22;3623;47.098;15.446;2022-08-19T06:59:15;21.60;99.90
7163;DHT22;3623;47.098;15.446;2022-08-19T07:01:44;21.70;99.90
7163;DHT22;3623;47.098;15.446;2022-08-19T07:04:13;21.70;99.90
7163;DHT22;3623;47.098;15.446;2022-08-19T07:06:41;21.70;99.90
7163;DHT22;3623;47.098;15.446;2022-08-19T07:09:10;21.70;99.90
7163;DHT22;3623;47.098;15.446;2022-08-19T07:11:38;21.70;99.90
7163;DHT22;3623;47.098;15.446;2022-08-19T07:14:06;21.70;99.90
7163;DHT22;3623;47.098;15.446;2022-08-19T07:16:34;21.60;99.90
7163;DHT22;3623;47.098;15.446;2022-08-19T07:19:01;21.60;99.90
7163;DHT22;3623;47.098;15.446;2022-08-19T07:21:29;21.60;99.90
7163;DHT22;3623;47.098;15.446;2022-08-19T07:23:56;21.50;99.90
7163;DHT22;3623;47.098;15.446;2022-08-19T07:26:28;21.50;99.90
7163;DHT22;3623;47.098;15.446;2022-08-19T07:28:56;21.40;99.90
7163;DHT22;3623;47.098;15.446;2022-08-19T07:31:27;21.30;99.90
7163;DHT22;3623;47.098;15.446;2022-08-19T07:33:55;21.10;99.90
7163;DHT22;3623;47.098;15.446;2022-08-19T07:36:26;21.00;99.90
7163;DHT22;3623;47.098;15.446;2022-08-19T07:38:56;20.90;99.90
7163;DHT22;3623;47.098;15.446;2022-08-19T07:41:25;20.80;99.90
7163;DHT22;3623;47.098;15.446;2022-08-19T07:43:54;20.80;99.90
7163;DHT22;3623;47.098;15.446;2022-08-19T07:46:21;20.70;99.90
7163;DHT22;3623;47.098;15.446;2022-08-19T07:48:51;20.70;99.90
7163;DHT22;3623;47.098;15.446;2022-08-19T07:51:20;20.60;99.90
7163;DHT22;3623;47.098;15.446;2022-08-19T07:53:48;20.60;99.90
7163;DHT22;3623;47.098;15.446;2022-08-19T07:56:18;20.60;99.90
7163;DHT22;3623;47.098;15.446;2022-08-19T07:58:47;20.60;99.90
7163;DHT22;3623;47.098;15.446;2022-08-19T08:01:17;20.50;99.90
7163;DHT22;3623;47.098;15.446;2022-08-19T08:03:45;20.50;99.90
7163;DHT22;3623;47.098;15.446;2022-08-19T08:06:32;20.40;99.90
7163;DHT22;3623;47.098;15.446;2022-08-19T08:09:23;20.20;99.90
7163;DHT22;3623;47.098;15.446;2022-08-19T08:11:53;20.10;99.90
7163;DHT22;3623;47.098;15.446;2022-08-19T08:14:24;20.00;99.90
7163;DHT22;3623;47.098;15.446;2022-08-19T08:16:51;20.00;99.90
7163;DHT22;3623;47.098;15.446;2022-08-19T08:19:20;19.80;99.90
7163;DHT22;3623;47.098;15.446;2022-08-19T08:21:49;19.80;99.90
7163;DHT22;3623;47.098;15.446;2022-08-19T08:24:17;19.70;99.90
7163;DHT22;3623;47.098;15.446;2022-08-19T08:26:45;19.70;99.90
7163;DHT22;3623;47.098;15.446;2022-08-19T08:29:13;19.60;99.90
7163;DHT22;3623;47.098;15.446;2022-08-19T08:31:43;19.60;99.90
7163;DHT22;3623;47.098;15.446;2022-08-19T08:34:12;19.60;99.90
7163;DHT22;3623;47.098;15.446;2022-08-19T08:36:41;19.50;99.90
7163;DHT22;3623;47.098;15.446;2022-08-19T08:39:10;19.60;99.90
7163;DHT22;3623;47.098;15.446;2022-08-19T08:41:47;19.60;99.90
7163;DHT22;3623;47.098;15.446;2022-08-19T08:44:22;19.50;99.90
7163;DHT22;3623;47.098;15.446;2022-08-19T08:46:53;19.40;99.90
7163;DHT22;3623;47.098;15.446;2022-08-19T08:49:30;19.30;99.90
7163;DHT22;3623;47.098;15.446;2022-08-19T08:52:02;19.40;99.90
7163;DHT22;3623;47.098;15.446;2022-08-19T08:54:34;19.50;99.90
7163;DHT22;3623;47.098;15.446;2022-08-19T08:57:05;19.70;99.90
7163;DHT22;3623;47.098;15.446;2022-08-19T08:59:38;19.70;99.90
7163;DHT22;3623;47.098;15.446;2022-08-19T09:02:07;19.70;99.90
7163;DHT22;3623;47.098;15.446;2022-08-19T09:04:36;19.70;99.90
7163;DHT22;3623;47.098;15.446;2022-08-19T09:07:17;19.90;99.90
7163;DHT22;3623;47.098;15.446;2022-08-19T09:09:50;20.00;99.90
7163;DHT22;3623;47.098;15.446;2022-08-19T09:12:25;20.10;99.90
7163;DHT22;3623;47.098;15.446;2022-08-19T09:15:03;20.20;99.90
7163;DHT22;3623;47.098;15.446;2022-08-19T09:17:31;20.30;99.90
7163;DHT22;3623;47.098;15.446;2022-08-19T09:20:03;20.30;99.90
7163;DHT22;3623;47.098;15.446;2022-08-19T09:22:33;20.40;99.90
7163;DHT22;3623;47.098;15.446;2022-08-19T09:25:03;20.40;99.90
7163;DHT22;3623;47.098;15.446;2022-08-19T09:27:30;20.40;99.90
7163;DHT22;3623;47.098;15.446;2022-08-19T09:29:58;20.60;99.90
7163;DHT22;3623;47.098;15.446;2022-08-19T09:32:27;20.80;99.90
7163;DHT22;3623;47.098;15.446;2022-08-19T09:34:54;21.00;99.90
7163;DHT22;3623;47.098;15.446;2022-08-19T09:37:23;21.00;99.90
7163;DHT22;3623;47.098;15.446;2022-08-19T09:39:51;21.10;99.90
7163;DHT22;3623;47.098;15.446;2022-08-19T09:42:19;21.20;99.90
7163;DHT22;3623;47.098;15.446;2022-08-19T09:44:47;21.30;99.90
7163;DHT22;3623;47.098;15.446;2022-08-19T09:47:14;21.50;99.90
7163;DHT22;3623;47.098;15.446;2022-08-19T09:49:41;21.80;99.90
7163;DHT22;3623;47.098;15.446;2022-08-19T09:52:09;22.10;99.90
7163;DHT22;3623;47.098;15.446;2022-08-19T09:54:36;22.20;99.90
7163;DHT22;3623;47.098;15.446;2022-08-19T09:57:04;22.20;99.90
7163;DHT22;3623;47.098;15.446;2022-08-19T09:59:33;22.40;99.90
7163;DHT22;3623;47.098;15.446;2022-08-19T10:02:01;22.50;99.90
7163;DHT22;3623;47.098;15.446;2022-08-19T10:04:28;22.60;99.90
7163;DHT22;3623;47.098;15.446;2022-08-19T10:07:09;22.50;99.90
7163;DHT22;3623;47.098;15.446;2022-08-19T10:09:36;22.50;99.90
7163;DHT22;3623;47.098;15.446;2022-08-19T10:12:04;22.50;99.90
7163;DHT22;3623;47.098;15.446;2022-08-19T10:14:33;22.30;99.90
7163;DHT22;3623;47.098;15.446;2022-08-19T10:17:01;22.20;99.90
7163;DHT22;3623;47.098;15.446;2022-08-19T10:19:29;22.30;99.90
7163;DHT22;3623;47.098;15.446;2022-08-19T10:22:03;22.30;99.90
7163;DHT22;3623;47.098;15.446;2022-08-19T10:24:31;22.30;99.90
7163;DHT22;3623;47.098;15.446;2022-08-19T10:27:00;22.30;99.90
7163;DHT22;3623;47.098;15.446;2022-08-19T10:29:30;22.40;99.90
7163;DHT22;3623;47.098;15.446;2022-08-19T10:32:02;22.40;99.90
7163;DHT22;3623;47.098;15.446;2022-08-19T10:34:30;22.40;99.90
7163;DHT22;3623;47.098;15.446;2022-08-19T10:36:58;22.30;99.90
7163;DHT22;3623;47.098;15.446;2022-08-19T10:39:25;22.30;99.90
7163;DHT22;3623;47.098;15.446;2022-08-19T10:41:55;22.30;99.90
7163;DHT22;3623;47.098;15.446;2022-08-19T10:44:23;22.30;99.90
7163;DHT22;3623;47.098;15.446;2022-08-19T10:46:50;22.40;99.90
7163;DHT22;3623;47.098;15.446;2022-08-19T10:49:19;22.50;99.90
7163;DHT22;3623;47.098;15.446;2022-08-19T10:51:46;22.80;99.90
7163;DHT22;3623;47.098;15.446;2022-08-19T10:54:32;23.30;99.90
7163;DHT22;3623;47.098;15.446;2022-08-19T10:57:17;23.70;99.90
7163;DHT22;3623;47.098;15.446;2022-08-19T10:59:45;23.70;99.90
7163;DHT22;3623;47.098;15.446;2022-08-19T11:02:12;23.60;99.90
7163;DHT22;3623;47.098;15.446;2022-08-19T11:04:41;23.60;99.90
7163;DHT22;3623;47.098;15.446;2022-08-19T11:07:08;23.80;99.90
7163;DHT22;3623;47.098;15.446;2022-08-19T11:09:39;23.90;99.90
7163;DHT22;3623;47.098;15.446;2022-08-19T11:12:07;24.10;99.90
7163;DHT22;3623;47.098;15.446;2022-08-19T11:14:35;24.30;99.90
7163;DHT22;3623;47.098;15.446;2022-08-19T11:17:04;24.50;99.90
7163;DHT22;3623;47.098;15.446;2022-08-19T11:19:32;24.70;99.90
7163;DHT22;3623;47.098;15.446;2022-08-19T11:22:01;25.00;99.90
7163;DHT22;3623;47.098;15.446;2022-08-19T11:24:29;25.50;99.90
7163;DHT22;3623;47.098;15.446;2022-08-19T11:27:02;25.40;99.90
7163;DHT22;3623;47.098;15.446;2022-08-19T11:29:31;25.30;99.90
7163;DHT22;3623;47.098;15.446;2022-08-19T11:32:02;25.40;99.90
7163;DHT22;3623;47.098;15.446;2022-08-19T11:34:30;25.50;99.90
7163;DHT22;3623;47.098;15.446;2022-08-19T11:36:57;25.50;99.90
7163;DHT22;3623;47.098;15.446;2022-08-19T11:39:29;25.40;99.90
7163;DHT22;3623;47.098;15.446;2022-08-19T11:41:57;25.10;99.90
7163;DHT22;3623;47.098;15.446;2022-08-19T11:44:25;25.00;99.90
7163;DHT22;3623;47.098;15.446;2022-08-19T11:46:53;24.80;99.90
7163;DHT22;3623;47.098;15.446;2022-08-19T11:49:24;24.60;99.90
7163;DHT22;3623;47.098;15.446;2022-08-19T11:51:51;24.70;99.90
7163;DHT22;3623;47.098;15.446;2022-08-19T11:54:19;25.00;99.90
7163;DHT22;3623;47.098;15.446;2022-08-19T11:56:47;25.50;99.90
7163;DHT22;3623;47.098;15.446;2022-08-19T11:59:17;26.00;99.90
7163;DHT22;3623;47.098;15.446;2022-08-19T12:01:44;25.90;99.90
7163;DHT22;3623;47.098;15.446;2022-08-19T12:04:11;26.00;99.90
7163;DHT22;3623;47.098;15.446;2022-08-19T12:06:40;26.30;99.90
7163;DHT22;3623;47.098;15.446;2022-08-19T12:09:09;26.50;99.90
7163;DHT22;3623;47.098;15.446;2022-08-19T12:11:37;26.70;99.90
7163;DHT22;3623;47.098;15.446;2022-08-19T12:14:09;27.20;99.90
7163;DHT22;3623;47.098;15.446;2022-08-19T12:16:36;27.80;99.90
7163;DHT22;3623;47.098;15.446;2022-08-19T12:19:04;28.00;99.90
7163;DHT22;3623;47.098;15.446;2022-08-19T12:21:34;27.90;99.90
7163;DHT22;3623;47.098;15.446;2022-08-19T12:24:03;28.00;99.90
7163;DHT22;3623;47.098;15.446;2022-08-19T12:26:30;27.70;99.90
7163;DHT22;3623;47.098;15.446;2022-08-19T12:28:58;27.40;99.90
7163;DHT22;3623;47.098;15.446;2022-08-19T12:31:27;27.90;99.90
7163;DHT22;3623;47.098;15.446;2022-08-19T12:33:55;29.30;99.90
7163;DHT22;3623;47.098;15.446;2022-08-19T12:36:23;29.70;99.90
7163;DHT22;3623;47.098;15.446;2022-08-19T12:38:50;30.00;99.90
7163;DHT22;3623;47.098;15.446;2022-08-19T12:41:18;30.20;99.90
7163;DHT22;3623;47.098;15.446;2022-08-19T12:43:48;29.90;99.40
7163;DHT22;3623;47.098;15.446;2022-08-19T12:46:16;29.80;99.20
7163;DHT22;3623;47.098;15.446;2022-08-19T12:48:45;30.00;98.90
7163;DHT22;3623;47.098;15.446;2022-08-19T12:51:14;30.70;96.50
7163;DHT22;3623;47.098;15.446;2022-08-19T12:53:42;31.10;94.90
7163;DHT22;3623;47.098;15.446;2022-08-19T12:56:10;31.60;93.30
7163;DHT22;3623;47.098;15.446;2022-08-19T12:58:40;31.90;93.30
7163;DHT22;3623;47.098;15.446;2022-08-19T13:01:09;33.10;92.80
7163;DHT22;3623;47.098;15.446;2022-08-19T13:03:36;34.10;90.20
7163;DHT22;3623;47.098;15.446;2022-08-19T13:06:06;33.80;88.50
7163;DHT22;3623;47.098;15.446;2022-08-19T13:08:33;32.60;89.70
7163;DHT22;3623;47.098;15.446;2022-08-19T13:11:07;32.90;90.30
7163;DHT22;3623;47.098;15.446;2022-08-19T13:13:36;32.70;88.80
7163;DHT22;3623;47.098;15.446;2022-08-19T13:16:07;31.90;89.80
7163;DHT22;3623;47.098;15.446;2022-08-19T13:18:34;31.00;90.00
7163;DHT22;3623;47.098;15.446;2022-08-19T13:21:02;30.70;90.30
7163;DHT22;3623;47.098;15.446;2022-08-19T13:23:34;30.20;90.00
7163;DHT22;3623;47.098;15.446;2022-08-19T13:26:03;29.70;91.20
7163;DHT22;3623;47.098;15.446;2022-08-19T13:28:32;29.60;92.20
7163;DHT22;3623;47.098;15.446;2022-08-19T13:31:15;28.70;92.20
7163;DHT22;3623;47.098;15.446;2022-08-19T13:34:00;28.20;93.20
7163;DHT22;3623;47.098;15.446;2022-08-19T13:36:27;28.10;93.60
7163;DHT22;3623;47.098;15.446;2022-08-19T13:38:56;28.40;94.00
7163;DHT22;3623;47.098;15.446;2022-08-19T13:41:23;28.90;92.80
7163;DHT22;3623;47.098;15.446;2022-08-19T13:43:50;29.10;93.20
7163;DHT22;3623;47.098;15.446;2022-08-19T13:46:17;29.10;93.10
7163;DHT22;3623;47.098;15.446;2022-08-19T13:48:46;30.30;92.50
7163;DHT22;3623;47.098;15.446;2022-08-19T13:51:14;31.40;91.60
7163;DHT22;3623;47.098;15.446;2022-08-19T13:53:43;32.00;91.30
7163;DHT22;3623;47.098;15.446;2022-08-19T13:56:13;31.90;89.20
7163;DHT22;3623;47.098;15.446;2022-08-19T13:58:41;32.30;90.10
7163;DHT22;3623;47.098;15.446;2022-08-19T14:01:08;32.90;89.30
7163;DHT22;3623;47.098;15.446;2022-08-19T14:03:36;33.20;88.30
7163;DHT22;3623;47.098;15.446;2022-08-19T14:06:04;32.80;88.50
7163;DHT22;3623;47.098;15.446;2022-08-19T14:08:31;33.10;86.90
7163;DHT22;3623;47.098;15.446;2022-08-19T14:10:58;33.10;85.80
7163;DHT22;3623;47.098;15.446;2022-08-19T14:13:27;33.30;84.10
7163;DHT22;3623;47.098;15.446;2022-08-19T14:15:54;33.30;83.80
7163;DHT22;3623;47.098;15.446;2022-08-19T14:18:21;32.80;82.00
7163;DHT22;3623;47.098;15.446;2022-08-19T14:20:50;32.90;81.80
7163;DHT22;3623;47.098;15.446;2022-08-19T14:23:18;33.10;83.10
7163;DHT22;3623;47.098;15.446;2022-08-19T14:25:45;33.30;83.00
7163;DHT22;3623;47.098;15.446;2022-08-19T14:28:13;32.60;84.40
7163;DHT22;3623;47.098;15.446;2022-08-19T14:30:46;32.80;83.50
7163;DHT22;3623;47.098;15.446;2022-08-19T14:33:15;33.40;81.30
7163;DHT22;3623;47.098;15.446;2022-08-19T14:35:42;33.60;80.70
7163;DHT22;3623;47.098;15.446;2022-08-19T14:38:15;33.60;79.90
7163;DHT22;3623;47.098;15.446;2022-08-19T14:40:49;33.40;79.20
7163;DHT22;3623;47.098;15.446;2022-08-19T14:43:18;32.50;81.90
7163;DHT22;3623;47.098;15.446;2022-08-19T14:45:46;32.10;81.20
7163;DHT22;3623;47.098;15.446;2022-08-19T14:48:13;32.00;84.70
7163;DHT22;3623;47.098;15.446;2022-08-19T14:50:42;32.40;83.70
7163;DHT22;3623;47.098;15.446;2022-08-19T14:53:09;32.80;84.60
7163;DHT22;3623;47.098;15.446;2022-08-19T14:55:41;33.70;80.80
7163;DHT22;3623;47.098;15.446;2022-08-19T14:58:08;33.70;82.40
7163;DHT22;3623;47.098;15.446;2022-08-19T15:00:41;33.00;80.40
7163;DHT22;3623;47.098;15.446;2022-08-19T15:03:10;31.80;84.20
7163;DHT22;3623;47.098;15.446;2022-08-19T15:05:38;31.00;85.20
7163;DHT22;3623;47.098;15.446;2022-08-19T15:08:07;30.10;89.70
7163;DHT22;3623;47.098;15.446;2022-08-19T15:10:34;29.80;88.50
7163;DHT22;3623;47.098;15.446;2022-08-19T15:13:01;29.10;88.50
7163;DHT22;3623;47.098;15.446;2022-08-19T15:15:28;28.50;90.30
7163;DHT22;3623;47.098;15.446;2022-08-19T15:17:55;28.10;90.90
7163;DHT22;3623;47.098;15.446;2022-08-19T15:20:38;27.90;91.40
7163;DHT22;3623;47.098;15.446;2022-08-19T15:23:06;27.70;92.60
7163;DHT22;3623;47.098;15.446;2022-08-19T15:25:33;27.80;92.20
7163;DHT22;3623;47.098;15.446;2022-08-19T15:28:01;28.10;92.20
7163;DHT22;3623;47.098;15.446;2022-08-19T15:30:32;28.60;91.60
7163;DHT22;3623;47.098;15.446;2022-08-19T15:33:00;28.70;90.80
7163;DHT22;3623;47.098;15.446;2022-08-19T15:35:27;28.50;91.80
7163;DHT22;3623;47.098;15.446;2022-08-19T15:37:56;28.20;91.40
7163;DHT22;3623;47.098;15.446;2022-08-19T15:40:25;28.00;92.10
7163;DHT22;3623;47.098;15.446;2022-08-19T15:42:53;27.60;93.40
7163;DHT22;3623;47.098;15.446;2022-08-19T15:45:21;27.30;93.10
7163;DHT22;3623;47.098;15.446;2022-08-19T15:47:49;27.10;93.00
7163;DHT22;3623;47.098;15.446;2022-08-19T15:50:19;26.90;93.80
7163;DHT22;3623;47.098;15.446;2022-08-19T15:52:48;26.80;93.20
7163;DHT22;3623;47.098;15.446;2022-08-19T15:55:18;26.60;93.40
7163;DHT22;3623;47.098;15.446;2022-08-19T15:57:45;26.60;94.00